createdAt,value
2023-03-23T00:02:02.289Z,97724.75
2023-03-23T00:04:30.335Z,97732.06
2023-03-23T00:06:57.115Z,97716.13
2023-03-23T00:09:25.864Z,97728.56
2023-03-23T00:11:52.985Z,97727.94
2023-03-23T00:14:23.565Z,97725.63
2023-03-23T00:16:50.945Z,97719.25
2023-03-23T00:19:20.353Z,97718.69
2023-03-23T00:21:47.313Z,97722.06
2023-03-23T00:24:19.110Z,97722.69
2023-03-23T00:26:48.491Z,97711.97
2023-03-23T00:29:19.874Z,97711.22
2023-03-23T00:31:51.134Z,97710.84
2023-03-23T00:34:27.019Z,97715.69
2023-03-23T00:36:57.780Z,97706.53
2023-03-23T00:39:26.690Z,97704.06
2023-03-23T00:41:54.374Z,97702.84
2023-03-23T00:44:24.697Z,97703.66
2023-03-23T00:46:51.340Z,97699.38
2023-03-23T00:49:20.908Z,97695.44
2023-03-23T00:51:47.785Z,97692.16
2023-03-23T00:54:14.552Z,97689.69
2023-03-23T00:56:41.930Z,97686.13
2023-03-23T00:59:09.121Z,97691.66
2023-03-23T01:01:36.614Z,97683.47
2023-03-23T01:04:06.953Z,97687.19
2023-03-23T01:06:40.254Z,97675.47
2023-03-23T01:09:17.736Z,97670.75
2023-03-23T01:11:45.780Z,97669.94
2023-03-23T01:14:13.868Z,97667.50
2023-03-23T01:16:41.873Z,97663.81
2023-03-23T01:19:09.070Z,97657.75
2023-03-23T01:21:37.075Z,97660.06
2023-03-23T01:24:04.045Z,97654.63
2023-03-23T01:26:31.162Z,97649.47
2023-03-23T01:28:58.589Z,97642.03
2023-03-23T01:31:27.399Z,97637.16
2023-03-23T01:33:55.651Z,97642.66
2023-03-23T01:36:27.669Z,97645.38
2023-03-23T01:38:55.504Z,97635.56
2023-03-23T01:41:22.904Z,97643.59
2023-03-23T01:44:31.205Z,97629.16
2023-03-23T01:47:08.372Z,97626.38
2023-03-23T01:49:39.458Z,97623.28
2023-03-23T01:52:10.193Z,97628.59
2023-03-23T01:54:39.380Z,97629.59
2023-03-23T01:57:08.989Z,97625.69
2023-03-23T01:59:36.635Z,97622.63
2023-03-23T02:02:17.237Z,97623.38
2023-03-23T02:04:45.586Z,97630.38
2023-03-23T02:07:13.646Z,97626.03
2023-03-23T02:09:40.615Z,97641.00
2023-03-23T02:12:07.571Z,97630.59
2023-03-23T02:14:36.226Z,97621.22
2023-03-23T02:17:10.881Z,97626.09
2023-03-23T02:19:43.373Z,97623.00
2023-03-23T02:22:36.552Z,97625.84
2023-03-23T02:25:30.755Z,97623.31
2023-03-23T02:28:03.950Z,97627.56
2023-03-23T02:30:38.699Z,97621.78
2023-03-23T02:33:40.115Z,97625.03
2023-03-23T02:36:39.283Z,97622.38
2023-03-23T02:39:25.790Z,97612.00
2023-03-23T02:41:59.829Z,97601.91
2023-03-23T02:44:31.074Z,97589.88
2023-03-23T02:46:59.134Z,97579.56
2023-03-23T02:49:26.704Z,97575.50
2023-03-23T02:51:54.945Z,97579.44
2023-03-23T02:54:23.877Z,97578.06
2023-03-23T02:56:52.116Z,97579.03
2023-03-23T02:59:23.796Z,97579.44
2023-03-23T03:01:54.529Z,97575.63
2023-03-23T03:04:23.992Z,97570.25
2023-03-23T03:07:09.111Z,97561.69
2023-03-23T03:09:46.690Z,97559.16
2023-03-23T03:12:29.207Z,97563.44
2023-03-23T03:15:10.084Z,97560.13
2023-03-23T03:17:42.443Z,97563.25
2023-03-23T03:20:11.593Z,97564.88
2023-03-23T03:22:43.277Z,97556.34
2023-03-23T03:25:18.721Z,97558.38
2023-03-23T03:27:50.453Z,97555.28
2023-03-23T03:30:25.013Z,97545.91
2023-03-23T03:32:54.554Z,97563.41
2023-03-23T03:35:23.989Z,97555.38
2023-03-23T03:37:52.084Z,97557.13
2023-03-23T03:40:21.104Z,97565.72
2023-03-23T03:42:48.195Z,97557.28
2023-03-23T03:45:20.258Z,97557.34
2023-03-23T03:47:47.222Z,97559.84
2023-03-23T03:50:17.713Z,97557.19
2023-03-23T03:52:45.033Z,97558.41
2023-03-23T03:55:12.275Z,97554.47
2023-03-23T03:57:42.745Z,97550.38
2023-03-23T04:00:16.582Z,97544.41
2023-03-23T04:02:51.708Z,97546.44
2023-03-23T04:05:25.500Z,97544.38
2023-03-23T04:07:52.727Z,97549.66
2023-03-23T04:10:36.157Z,97552.47
2023-03-23T04:13:05.653Z,97547.69
2023-03-23T04:16:07.124Z,97554.00
2023-03-23T04:18:35.189Z,97559.16
2023-03-23T04:21:04.392Z,97564.22
2023-03-23T04:23:34.591Z,97563.41
2023-03-23T04:26:04.382Z,97565.75
2023-03-23T04:28:39.856Z,97563.38
2023-03-23T04:31:38.936Z,97562.94
2023-03-23T04:34:26.769Z,97566.91
2023-03-23T04:36:57.013Z,97564.84
2023-03-23T04:39:30.081Z,97564.31
2023-03-23T04:42:02.295Z,97565.00
2023-03-23T04:44:54.548Z,97561.41
2023-03-23T04:47:30.527Z,97552.81
2023-03-23T04:50:00.122Z,97557.34
2023-03-23T04:52:38.810Z,97556.81
2023-03-23T04:55:09.080Z,97551.09
2023-03-23T04:57:37.120Z,97551.56
2023-03-23T05:00:26.863Z,97557.28
2023-03-23T05:02:57.521Z,97566.22
2023-03-23T05:05:28.811Z,97568.75
2023-03-23T05:07:58.286Z,97558.38
2023-03-23T05:10:28.419Z,97556.09
2023-03-23T05:13:01.330Z,97564.19
2023-03-23T05:15:28.135Z,97556.63
2023-03-23T05:17:57.020Z,97556.63
2023-03-23T05:20:26.116Z,97559.28
2023-03-23T05:23:03.630Z,97558.00
2023-03-23T05:25:37.954Z,97552.94
2023-03-23T05:28:10.113Z,97558.91
2023-03-23T05:30:54.860Z,97555.66
2023-03-23T05:33:22.016Z,97549.66
2023-03-23T05:35:52.585Z,97557.88
2023-03-23T05:38:25.645Z,97556.66
2023-03-23T05:40:54.322Z,97548.06
2023-03-23T05:43:27.505Z,97550.03
2023-03-23T05:46:08.024Z,97554.16
2023-03-23T05:48:36.090Z,97549.25
2023-03-23T05:51:03.723Z,97556.16
2023-03-23T05:53:32.963Z,97560.09
2023-03-23T05:56:01.659Z,97556.00
2023-03-23T05:58:46.594Z,97561.09
2023-03-23T06:01:15.836Z,97565.84
2023-03-23T06:03:45.675Z,97568.16
2023-03-23T06:06:23.127Z,97569.63
2023-03-23T06:08:59.749Z,97575.50
2023-03-23T06:11:39.749Z,97581.88
2023-03-23T06:14:27.345Z,97591.78
2023-03-23T06:16:54.126Z,97586.03
2023-03-23T06:19:21.479Z,97597.31
2023-03-23T06:21:58.827Z,97593.63
2023-03-23T06:24:52.096Z,97593.63
2023-03-23T06:27:25.171Z,97601.59
2023-03-23T06:29:52.293Z,97594.44
2023-03-23T06:32:20.570Z,97602.78
2023-03-23T06:34:48.827Z,97602.41
2023-03-23T06:37:34.427Z,97604.44
2023-03-23T06:40:07.802Z,97605.66
2023-03-23T06:42:40.014Z,97607.69
2023-03-23T06:45:34.447Z,97620.34
2023-03-23T06:48:33.597Z,97615.84
2023-03-23T06:51:01.168Z,97610.25
2023-03-23T06:53:29.448Z,97616.50
2023-03-23T06:55:58.256Z,97616.31
2023-03-23T06:58:25.689Z,97622.69
2023-03-23T07:00:57.948Z,97622.69
2023-03-23T07:03:29.792Z,97629.75
2023-03-23T07:05:56.610Z,97631.31
2023-03-23T07:08:27.527Z,97630.75
2023-03-23T07:10:56.247Z,97635.56
2023-03-23T07:13:28.540Z,97635.78
2023-03-23T07:15:59.391Z,97628.25
2023-03-23T07:18:26.504Z,97631.72
2023-03-23T07:20:54.629Z,97636.66
2023-03-23T07:23:25.869Z,97643.38
2023-03-23T07:25:59.849Z,97648.50
2023-03-23T07:28:33.173Z,97658.31
2023-03-23T07:31:09.090Z,97661.78
2023-03-23T07:33:37.066Z,97667.69
2023-03-23T07:36:04.836Z,97663.63
2023-03-23T07:38:32.130Z,97676.69
2023-03-23T07:40:59.801Z,97679.97
2023-03-23T07:43:27.372Z,97681.47
2023-03-23T07:46:00.212Z,97691.50
2023-03-23T07:48:39.035Z,97689.16
2023-03-23T07:51:08.338Z,97688.94
2023-03-23T07:53:35.539Z,97691.91
2023-03-23T07:56:16.024Z,97682.72
2023-03-23T07:58:48.670Z,97682.91
2023-03-23T08:01:15.568Z,97689.38
2023-03-23T08:03:48.358Z,97682.66
2023-03-23T08:06:34.379Z,97684.06
2023-03-23T08:09:14.561Z,97677.31
2023-03-23T08:11:59.142Z,97690.44
2023-03-23T08:14:59.058Z,97692.91
2023-03-23T08:17:46.081Z,97703.34
2023-03-23T08:20:32.526Z,97699.28
2023-03-23T08:23:25.384Z,97698.66
2023-03-23T08:26:13.251Z,97697.44
2023-03-23T08:29:00.124Z,97705.66
2023-03-23T08:31:36.516Z,97704.44
2023-03-23T08:34:08.859Z,97710.94
2023-03-23T08:37:01.876Z,97710.34
2023-03-23T08:39:54.852Z,97707.25
2023-03-23T08:42:28.345Z,97704.38
2023-03-23T08:45:23.800Z,97713.41
2023-03-23T08:48:12.050Z,97707.63
2023-03-23T08:50:51.058Z,97720.97
2023-03-23T08:53:32.373Z,97726.56
2023-03-23T08:56:18.136Z,97726.31
2023-03-23T08:58:48.537Z,97724.28
2023-03-23T09:01:47.364Z,97731.84
2023-03-23T09:04:22.086Z,97740.69
2023-03-23T09:07:08.544Z,97743.53
2023-03-23T09:09:35.401Z,97739.63
2023-03-23T09:12:02.121Z,97748.25
2023-03-23T09:14:28.822Z,97744.94
2023-03-23T09:16:55.688Z,97749.31
2023-03-23T09:19:25.013Z,97751.34
2023-03-23T09:21:52.280Z,97745.84
2023-03-23T09:24:20.218Z,97750.19
2023-03-23T09:26:46.925Z,97748.72
2023-03-23T09:29:14.603Z,97749.75
2023-03-23T09:31:42.824Z,97757.78
2023-03-23T09:34:10.979Z,97753.44
2023-03-23T09:36:40.072Z,97763.09
2023-03-23T09:39:12.392Z,97764.94
2023-03-23T09:42:02.800Z,97759.81
2023-03-23T09:45:12.587Z,97761.47
2023-03-23T09:47:49.450Z,97762.88
2023-03-23T09:50:19.485Z,97767.63
2023-03-23T09:52:49.512Z,97768.22
2023-03-23T09:55:17.736Z,97764.47
2023-03-23T09:58:16.863Z,97767.81
2023-03-23T10:00:48.378Z,97773.34
2023-03-23T10:03:18.676Z,97766.53
2023-03-23T10:05:49.313Z,97769.19
2023-03-23T10:08:20.488Z,97771.06
2023-03-23T10:11:05.395Z,97779.50
2023-03-23T10:13:50.320Z,97782.97
2023-03-23T10:16:21.941Z,97783.19
2023-03-23T10:19:19.271Z,97786.88
2023-03-23T10:21:50.625Z,97792.22
2023-03-23T10:24:18.425Z,97790.34
2023-03-23T10:27:12.533Z,97790.97
2023-03-23T10:29:46.093Z,97787.91
2023-03-23T10:32:15.760Z,97796.91
2023-03-23T10:34:47.594Z,97799.34
2023-03-23T10:37:31.439Z,97793.25
2023-03-23T10:40:00.504Z,97786.75
2023-03-23T10:42:29.934Z,97790.44
2023-03-23T10:44:58.109Z,97784.22
2023-03-23T10:47:25.533Z,97788.00
2023-03-23T10:50:00.977Z,97800.31
2023-03-23T10:52:36.542Z,97800.97
2023-03-23T10:55:15.938Z,97803.31
2023-03-23T10:57:48.125Z,97802.50
2023-03-23T11:00:27.952Z,97804.72
2023-03-23T11:03:05.799Z,97798.53
2023-03-23T11:05:43.893Z,97788.19
2023-03-23T11:08:16.698Z,97787.56
2023-03-23T11:10:54.895Z,97780.59
2023-03-23T11:13:24.050Z,97787.09
2023-03-23T11:15:51.580Z,97786.28
2023-03-23T11:18:23.052Z,97783.84
2023-03-23T11:20:54.879Z,97785.06
2023-03-23T11:23:24.087Z,97786.25
2023-03-23T11:25:59.873Z,97782.56
2023-03-23T11:28:34.021Z,97792.03
2023-03-23T11:31:03.132Z,97798.41
2023-03-23T11:33:32.543Z,97792.88
2023-03-23T11:35:59.391Z,97787.72
2023-03-23T11:38:29.273Z,97786.06
2023-03-23T11:40:56.004Z,97790.16
2023-03-23T11:43:25.714Z,97779.09
2023-03-23T11:46:16.713Z,97773.16
2023-03-23T11:49:02.255Z,97769.66
2023-03-23T11:51:39.558Z,97767.19
2023-03-23T11:54:14.602Z,97770.66
2023-03-23T11:56:44.244Z,97772.84
2023-03-23T11:59:30.603Z,97765.88
2023-03-23T12:02:23.150Z,97762.09
2023-03-23T12:05:29.406Z,97762.09
2023-03-23T12:08:27.608Z,97763.66
2023-03-23T12:10:58.008Z,97763.47
2023-03-23T12:14:02.833Z,97759.66
2023-03-23T12:16:40.631Z,97768.09
2023-03-23T12:19:20.207Z,97761.63
2023-03-23T12:22:25.613Z,97768.81
2023-03-23T12:25:23.458Z,97761.75
2023-03-23T12:28:02.734Z,97759.56
2023-03-23T12:30:34.722Z,97763.69
2023-03-23T12:33:35.293Z,97767.63
2023-03-23T12:36:19.881Z,97773.28
2023-03-23T12:39:08.463Z,97769.41
2023-03-23T12:41:41.434Z,97765.88
2023-03-23T12:44:14.515Z,97751.47
2023-03-23T12:47:08.504Z,97748.09
2023-03-23T12:49:44.390Z,97740.09
2023-03-23T12:52:42.574Z,97740.84
2023-03-23T12:55:43.136Z,97737.00
2023-03-23T12:58:15.353Z,97741.72
2023-03-23T13:01:02.348Z,97732.69
2023-03-23T13:03:46.634Z,97732.47
2023-03-23T13:06:21.426Z,97720.41
2023-03-23T13:09:11.409Z,97726.94
2023-03-23T13:11:42.149Z,97721.91
2023-03-23T13:14:41.631Z,97714.34
2023-03-23T13:17:29.729Z,97721.75
2023-03-23T13:20:32.968Z,97718.97
2023-03-23T13:23:12.747Z,97710.25
2023-03-23T13:25:47.146Z,97703.00
2023-03-23T13:28:23.680Z,97699.38
2023-03-23T13:31:13.087Z,97695.09
2023-03-23T13:33:40.161Z,97690.22
2023-03-23T13:36:16.788Z,97697.84
2023-03-23T13:38:50.667Z,97691.53
2023-03-23T13:41:19.460Z,97689.78
2023-03-23T13:43:46.175Z,97686.94
2023-03-23T13:46:25.936Z,97687.91
2023-03-23T13:49:05.394Z,97685.72
2023-03-23T13:51:53.909Z,97692.34
2023-03-23T13:54:21.177Z,97680.06
2023-03-23T13:57:02.916Z,97678.22
2023-03-23T13:59:48.046Z,97680.97
2023-03-23T14:02:45.567Z,97670.97
2023-03-23T14:05:19.255Z,97672.25
2023-03-23T14:08:11.758Z,97669.16
2023-03-23T14:10:50.795Z,97664.50
2023-03-23T14:13:22.714Z,97667.72
2023-03-23T14:16:01.557Z,97657.94
2023-03-23T14:18:37.204Z,97657.03
2023-03-23T14:21:05.068Z,97650.38
2023-03-23T14:23:38.531Z,97645.03
2023-03-23T14:26:17.563Z,97640.59
2023-03-23T14:28:46.784Z,97637.03
2023-03-23T14:31:27.457Z,97619.75
2023-03-23T14:33:55.864Z,97636.50
2023-03-23T14:36:28.922Z,97634.97
2023-03-23T14:39:20.867Z,97634.16
2023-03-23T14:41:47.699Z,97638.25
2023-03-23T14:44:24.452Z,97633.19
2023-03-23T14:46:51.224Z,97639.53
2023-03-23T14:49:21.595Z,97635.63
2023-03-23T14:51:50.828Z,97640.97
2023-03-23T14:54:29.003Z,97635.91
2023-03-23T14:56:57.154Z,97644.34
2023-03-23T14:59:23.888Z,97639.28
2023-03-23T15:01:51.981Z,97639.09
2023-03-23T15:04:24.501Z,97629.66
2023-03-23T15:06:57.865Z,97627.97
2023-03-23T15:09:25.273Z,97632.25
2023-03-23T15:11:58.584Z,97635.63
2023-03-23T15:14:32.344Z,97637.81
2023-03-23T15:17:00.715Z,97634.25
2023-03-23T15:19:32.848Z,97637.91
2023-03-23T15:22:08.638Z,97635.66
2023-03-23T15:24:38.927Z,97636.41
2023-03-23T15:27:12.294Z,97635.69
2023-03-23T15:29:54.024Z,97637.97
2023-03-23T15:32:26.366Z,97632.09
2023-03-23T15:34:54.360Z,97637.59
2023-03-23T15:37:28.776Z,97635.44
2023-03-23T15:39:56.624Z,97636.75
2023-03-23T15:42:31.812Z,97638.63
2023-03-23T15:45:03.888Z,97631.66
2023-03-23T15:47:39.917Z,97636.63
2023-03-23T15:50:17.194Z,97633.53
2023-03-23T15:52:44.226Z,97626.94
2023-03-23T15:55:26.165Z,97625.56
2023-03-23T15:57:54.849Z,97620.81
2023-03-23T16:00:23.506Z,97633.16
2023-03-23T16:02:54.960Z,97631.28
2023-03-23T16:05:21.875Z,97620.56
2023-03-23T16:07:48.608Z,97631.84
2023-03-23T16:10:18.176Z,97634.16
2023-03-23T16:12:46.067Z,97631.28
2023-03-23T16:15:14.184Z,97634.38
2023-03-23T16:17:41.237Z,97628.03
2023-03-23T16:20:16.421Z,97630.69
2023-03-23T16:22:43.201Z,97634.38
2023-03-23T16:25:10.137Z,97646.69
2023-03-23T16:27:36.874Z,97642.25
2023-03-23T16:30:12.036Z,97638.59
2023-03-23T16:35:04.487Z,97648.22
2023-03-23T16:37:33.520Z,97650.31
2023-03-23T16:40:01.236Z,97648.91
2023-03-23T16:42:28.046Z,97652.13
2023-03-23T16:44:55.054Z,97660.38
2023-03-23T16:47:25.729Z,97651.41
2023-03-23T16:49:54.103Z,97654.72
2023-03-23T16:52:21.230Z,97660.72
2023-03-23T16:54:48.040Z,97656.41
2023-03-23T16:57:15.670Z,97653.31
2023-03-23T16:59:42.724Z,97648.63
2023-03-23T17:02:11.465Z,97650.03
2023-03-23T17:04:43.711Z,97637.88
2023-03-23T17:07:10.885Z,97645.06
2023-03-23T17:09:37.664Z,97642.44
2023-03-23T17:12:04.819Z,97635.88
2023-03-23T17:14:31.822Z,97629.25
2023-03-23T17:16:58.926Z,97625.16
2023-03-23T17:19:26.228Z,97623.91
2023-03-23T17:21:53.172Z,97614.72
2023-03-23T17:24:20.094Z,97612.28
2023-03-23T17:26:46.835Z,97628.50
2023-03-23T17:29:13.572Z,97620.50
2023-03-23T17:31:41.834Z,97617.00
2023-03-23T17:34:08.584Z,97622.78
2023-03-23T17:36:35.768Z,97624.22
2023-03-23T17:39:02.733Z,97627.28
2023-03-23T17:41:29.565Z,97627.06
2023-03-23T17:43:56.277Z,97623.16
2023-03-23T17:46:23.052Z,97628.72
2023-03-23T17:48:49.837Z,97619.09
2023-03-23T17:51:16.865Z,97618.69
2023-03-23T17:53:43.651Z,97628.91
2023-03-23T17:56:10.502Z,97623.19
2023-03-23T17:58:37.325Z,97622.56
2023-03-23T18:01:04.712Z,97614.13
2023-03-23T18:03:31.960Z,97621.97
2023-03-23T18:06:05.199Z,97627.69
2023-03-23T18:08:32.868Z,97630.97
2023-03-23T18:10:59.609Z,97624.00
2023-03-23T18:13:27.747Z,97632.41
2023-03-23T18:15:56.091Z,97626.47
2023-03-23T18:18:23.503Z,97630.53
2023-03-23T18:20:57.842Z,97633.22
2023-03-23T18:23:24.538Z,97630.13
2023-03-23T18:25:53.806Z,97636.69
2023-03-23T18:28:22.000Z,97634.88
2023-03-23T18:30:49.624Z,97633.84
2023-03-23T18:33:18.999Z,97631.38
2023-03-23T18:35:46.676Z,97632.41
2023-03-23T18:38:14.292Z,97637.91
2023-03-23T18:40:45.666Z,97622.34
2023-03-23T18:43:13.282Z,97626.66
2023-03-23T18:45:40.163Z,97625.22
2023-03-23T18:48:07.740Z,97632.22
2023-03-23T18:50:34.626Z,97626.25
2023-03-23T18:53:01.415Z,97625.22
2023-03-23T18:55:28.259Z,97637.13
2023-03-23T18:57:55.106Z,97631.78
2023-03-23T19:00:21.978Z,97639.97
2023-03-23T19:02:52.024Z,97633.84
2023-03-23T19:05:19.682Z,97639.81
2023-03-23T19:07:46.536Z,97636.09
2023-03-23T19:10:13.979Z,97635.88
2023-03-23T19:12:40.691Z,97641.44
2023-03-23T19:15:07.866Z,97648.38
2023-03-23T19:17:36.439Z,97639.16
2023-03-23T19:20:05.019Z,97648.00
2023-03-23T19:22:33.021Z,97644.69
2023-03-23T19:25:00.249Z,97638.56
2023-03-23T19:27:26.970Z,97645.09
2023-03-23T19:29:53.825Z,97647.78
2023-03-23T19:32:21.074Z,97647.38
2023-03-23T19:34:51.043Z,97641.22
2023-03-23T19:37:18.097Z,97644.09
2023-03-23T19:39:44.855Z,97642.88
2023-03-23T19:42:11.923Z,97645.53
2023-03-23T19:44:38.911Z,97643.47
2023-03-23T19:47:05.879Z,97644.50
2023-03-23T19:49:32.813Z,97647.78
2023-03-23T19:52:09.061Z,97645.75
2023-03-23T19:54:37.866Z,97645.75
2023-03-23T19:57:05.576Z,97642.66
2023-03-23T19:59:32.334Z,97640.00
2023-03-23T20:01:59.074Z,97640.81
2023-03-23T20:04:25.855Z,97639.56
2023-03-23T20:06:52.954Z,97634.03
2023-03-23T20:09:20.483Z,97630.56
2023-03-23T20:11:47.287Z,97639.78
2023-03-23T20:14:14.020Z,97640.59
2023-03-23T20:16:40.967Z,97634.66
2023-03-23T20:19:08.813Z,97643.88
2023-03-23T20:21:35.604Z,97642.44
2023-03-23T20:24:02.312Z,97639.59
2023-03-23T20:26:32.423Z,97637.31
2023-03-23T20:29:00.162Z,97631.38
2023-03-23T20:31:30.829Z,97628.91
2023-03-23T20:34:02.070Z,97631.38
2023-03-23T20:36:36.252Z,97626.25
2023-03-23T20:39:11.511Z,97625.22
2023-03-23T20:41:39.070Z,97619.91
2023-03-23T20:44:07.277Z,97621.53
2023-03-23T20:46:34.361Z,97623.19
2023-03-23T20:49:01.781Z,97614.16
2023-03-23T20:51:28.526Z,97608.59
2023-03-23T20:53:55.835Z,97610.25
2023-03-23T20:56:22.642Z,97609.03
2023-03-23T20:58:49.653Z,97615.78
2023-03-23T21:01:16.443Z,97606.38
2023-03-23T21:03:44.589Z,97611.28
2023-03-23T21:06:12.140Z,97607.19
2023-03-23T21:08:40.374Z,97604.28
2023-03-23T21:11:09.869Z,97598.97
2023-03-23T21:13:36.962Z,97601.44
2023-03-23T21:16:05.278Z,97599.59
2023-03-23T21:18:32.203Z,97598.16
2023-03-23T21:21:00.549Z,97598.13
2023-03-23T21:23:29.913Z,97599.94
2023-03-23T21:26:06.330Z,97595.25
2023-03-23T21:28:33.210Z,97588.25
2023-03-23T21:31:02.353Z,97589.06
2023-03-23T21:33:29.122Z,97593.59
2023-03-23T21:35:56.642Z,97583.34
2023-03-23T21:38:27.166Z,97575.13
2023-03-23T21:40:55.239Z,97574.50
2023-03-23T21:43:27.369Z,97568.38
2023-03-23T21:45:56.639Z,97567.13
2023-03-23T21:48:24.203Z,97567.13
2023-03-23T21:50:50.933Z,97561.41
2023-03-23T21:53:20.610Z,97552.59
2023-03-23T21:55:51.887Z,97553.81
2023-03-23T21:58:24.293Z,97547.28
2023-03-23T22:00:54.244Z,97546.44
2023-03-23T22:03:25.448Z,97540.28
2023-03-23T22:05:56.977Z,97538.44
2023-03-23T22:08:25.441Z,97531.50
2023-03-23T22:11:00.813Z,97529.63
2023-03-23T22:13:32.662Z,97518.97
2023-03-23T22:16:01.328Z,97512.63
2023-03-23T22:18:28.558Z,97515.72
2023-03-23T22:20:55.438Z,97503.06
2023-03-23T22:23:22.404Z,97504.91
2023-03-23T22:25:49.101Z,97492.59
2023-03-23T22:28:15.824Z,97485.84
2023-03-23T22:30:42.534Z,97484.63
2023-03-23T22:33:09.318Z,97477.88
2023-03-23T22:35:36.364Z,97480.72
2023-03-23T22:38:03.404Z,97464.94
2023-03-23T22:40:32.921Z,97465.94
2023-03-23T22:43:00.062Z,97459.16
2023-03-23T22:45:28.047Z,97454.66
2023-03-23T22:47:55.009Z,97443.63
2023-03-23T22:50:24.304Z,97437.06
2023-03-23T22:52:51.063Z,97432.97
2023-03-23T22:55:18.020Z,97441.34
2023-03-23T22:57:45.015Z,97440.94
2023-03-23T23:00:15.143Z,97430.53
2023-03-23T23:02:43.102Z,97434.84
2023-03-23T23:05:10.836Z,97432.38
2023-03-23T23:07:37.608Z,97434.19
2023-03-23T23:10:05.497Z,97424.38
2023-03-23T23:12:35.332Z,97430.50
2023-03-23T23:15:07.268Z,97438.81
2023-03-23T23:17:35.033Z,97443.75
2023-03-23T23:20:05.801Z,97441.06
2023-03-23T23:22:32.997Z,97443.09
2023-03-23T23:25:00.909Z,97440.47
2023-03-23T23:27:27.618Z,97432.50
2023-03-23T23:29:54.382Z,97438.22
2023-03-23T23:32:21.243Z,97450.25
2023-03-23T23:34:48.675Z,97445.75
2023-03-23T23:37:15.556Z,97451.69
2023-03-23T23:39:42.643Z,97465.13
2023-03-23T23:42:09.593Z,97448.81
2023-03-23T23:44:36.368Z,97455.97
2023-03-23T23:47:03.329Z,97454.84
2023-03-23T23:49:30.155Z,97475.53
2023-03-23T23:51:56.877Z,97471.56
2023-03-23T23:54:30.259Z,97487.88
2023-03-23T23:57:01.266Z,97480.66
2023-03-23T23:59:29.217Z,97467.78
